Time;durP1;ratioP1;P1;durP2;ratioP2;P2;SDS_P1;SDS_P2;PMS_P1;PMS_P2;Temp;Humidity;BMP_temperature;BMP_pressure;BME280_temperature;BME280_humidity;BME280_pressure;Samples;Min_cycle;Max_cycle;Signal;HPM_P1;HPM_P2
2022/01/02 00:01:49;;;;;;;11.50;4.50;;;;;;;3.40;88.20;101545.63;5052706;28;20098;-57
2022/01/02 00:04:18;;;;;;;12.05;4.93;;;;;;;3.39;88.40;101539.63;5053490;28;20497;-57
2022/01/02 00:06:50;;;;;;;11.10;5.47;;;;;;;3.38;88.47;101531.88;5052394;28;20061;-58
2022/01/02 00:09:29;;;;;;;9.65;4.60;;;;;;;3.33;88.32;101507.81;5052006;28;20048;-58
2022/01/02 00:12:03;;;;;;;11.48;5.32;;;;;;;3.27;89.35;101507.59;5056265;28;20045;-57
2022/01/02 00:14:33;;;;;;;34.05;15.65;;;;;;;3.25;89.79;101511.81;5064225;28;20044;-57
2022/01/02 00:17:02;;;;;;;40.00;19.10;;;;;;;3.23;90.02;101511.75;5059918;28;20079;-57
2022/01/02 00:19:32;;;;;;;76.97;36.72;;;;;;;3.20;89.83;101505.66;5052421;28;20056;-57
2022/01/02 00:22:02;;;;;;;54.92;27.02;;;;;;;3.16;89.96;101499.56;5056500;28;20071;-57
2022/01/02 00:24:32;;;;;;;22.02;11.73;;;;;;;3.12;90.81;101472.97;5057086;28;20044;-57
2022/01/02 00:27:00;;;;;;;21.70;9.73;;;;;;;3.11;90.53;101471.19;5053791;28;20041;-57
2022/01/02 00:29:27;;;;;;;13.13;6.70;;;;;;;3.11;91.28;101470.31;5056071;28;20386;-57
2022/01/02 00:31:55;;;;;;;15.07;6.43;;;;;;;3.09;90.98;101477.94;5053457;28;20056;-57
2022/01/02 00:34:23;;;;;;;24.58;12.45;;;;;;;3.10;92.16;101484.81;5058462;28;20274;-57
2022/01/02 00:36:51;;;;;;;19.50;9.10;;;;;;;3.07;92.21;101479.59;5055535;28;20110;-57
2022/01/02 00:39:19;;;;;;;39.60;21.10;;;;;;;3.07;92.11;101478.72;5054949;28;20044;-57
2022/01/02 00:41:53;;;;;;;14.75;8.25;;;;;;;3.02;92.73;101476.00;5059717;28;20072;-57
2022/01/02 00:44:32;;;;;;;34.63;20.15;;;;;;;3.02;92.91;101475.13;5060869;28;20421;-57
2022/01/02 00:47:07;;;;;;;16.75;6.68;;;;;;;3.00;93.07;101462.28;5056629;28;20546;-57
2022/01/02 00:49:39;;;;;;;21.65;8.05;;;;;;;3.00;92.91;101453.72;5057971;28;20123;-57
2022/01/02 00:52:14;;;;;;;17.55;8.10;;;;;;;3.01;93.48;101447.78;5057218;28;20470;-57
2022/01/02 00:54:45;;;;;;;47.92;25.33;;;;;;;3.01;93.93;101438.41;5052785;28;20424;-57
2022/01/02 00:57:17;;;;;;;17.08;7.68;;;;;;;3.00;93.63;101436.66;5053100;28;20638;-57
2022/01/02 01:00:05;;;;;;;22.42;10.77;;;;;;;3.00;93.22;101426.41;5052322;28;20720;-57
2022/01/02 01:02:35;;;;;;;13.48;8.75;;;;;;;3.00;93.40;101415.31;5056616;28;20052;-58
2022/01/02 01:05:04;;;;;;;17.25;8.20;;;;;;;2.99;92.97;101417.00;5051256;28;20045;-56
2022/01/02 01:07:34;;;;;;;26.42;11.48;;;;;;;2.99;93.33;101408.44;5054628;28;20052;-57
2022/01/02 01:10:03;;;;;;;20.15;9.57;;;;;;;2.97;93.13;101405.84;5052443;28;20041;-57
2022/01/02 01:12:31;;;;;;;14.25;7.78;;;;;;;2.97;93.43;101390.47;5055269;28;20052;-57
2022/01/02 01:15:00;;;;;;;12.52;5.10;;;;;;;2.99;93.41;101393.94;5057785;28;20104;-57
2022/01/02 01:17:27;;;;;;;19.58;9.32;;;;;;;2.98;93.35;101381.97;5053188;28;20473;-57
2022/01/02 01:19:54;;;;;;;9.68;4.45;;;;;;;2.98;93.11;101371.72;5054168;28;20155;-57
2022/01/02 01:22:22;;;;;;;14.15;6.47;;;;;;;2.99;93.13;101363.22;5057192;28;20041;-57
2022/01/02 01:24:50;;;;;;;8.40;4.68;;;;;;;2.99;93.92;101373.47;5054872;28;20049;-57
2022/01/02 01:27:17;;;;;;;12.05;5.85;;;;;;;3.01;92.97;101371.81;5052505;28;20045;-57
2022/01/02 01:29:44;;;;;;;20.50;10.77;;;;;;;3.02;93.32;101358.19;5055214;28;20416;-57
2022/01/02 01:32:12;;;;;;;17.08;8.02;;;;;;;3.04;93.53;101366.78;5052842;28;20063;-57
2022/01/02 01:34:39;;;;;;;16.98;7.88;;;;;;;3.04;93.25;101371.03;5058746;28;20090;-57
2022/01/02 01:37:06;;;;;;;18.77;8.27;;;;;;;3.04;93.53;101351.41;5056009;28;20102;-57
2022/01/02 01:39:33;;;;;;;9.95;5.53;;;;;;;3.05;94.10;101342.03;5054465;28;20041;-57
2022/01/02 01:42:08;;;;;;;11.32;4.63;;;;;;;3.05;94.03;101348.03;5051400;28;20048;-57
2022/01/02 01:45:03;;;;;;;11.05;5.53;;;;;;;3.04;94.53;101341.19;5050314;28;20655;-57
2022/01/02 01:47:30;;;;;;;19.08;11.13;;;;;;;3.07;94.90;101332.72;5050819;28;20478;-57
2022/01/02 01:49:57;;;;;;;15.90;8.70;;;;;;;3.08;94.47;101335.31;5052060;28;20041;-57
2022/01/02 01:52:24;;;;;;;14.20;5.55;;;;;;;3.07;95.41;101331.03;5057716;28;20056;-57
2022/01/02 01:54:51;;;;;;;20.75;10.15;;;;;;;3.08;95.43;101337.88;5055625;28;20049;-57
2022/01/02 01:57:20;;;;;;;12.90;6.10;;;;;;;3.09;96.16;101339.63;5051613;28;20060;-57
2022/01/02 01:59:48;;;;;;;16.95;8.68;;;;;;;3.09;96.64;101334.50;5050660;28;20047;-57
2022/01/02 02:02:16;;;;;;;17.85;10.25;;;;;;;3.10;96.83;101331.13;5057793;28;20055;-57
2022/01/02 02:04:43;;;;;;;15.68;7.68;;;;;;;3.10;97.05;101320.88;5053684;28;20049;-57
2022/01/02 02:07:10;;;;;;;16.63;9.02;;;;;;;3.13;96.91;101309.88;5055219;28;20102;-57
2022/01/02 02:09:52;;;;;;;17.70;7.53;;;;;;;3.13;97.03;101299.63;5055659;28;20041;-57
2022/01/02 02:12:21;;;;;;;16.50;9.13;;;;;;;3.15;97.23;101303.97;5053491;28;20099;-57
2022/01/02 02:14:48;;;;;;;18.50;8.40;;;;;;;3.17;97.12;101292.09;5054768;28;20049;-57
2022/01/02 02:17:15;;;;;;;20.25;9.27;;;;;;;3.15;97.60;101280.94;5051524;28;20044;-57
2022/01/02 02:19:42;;;;;;;16.23;9.27;;;;;;;3.17;97.80;101278.41;5052743;28;20044;-57
2022/01/02 02:22:12;;;;;;;19.25;9.57;;;;;;;3.19;98.52;101273.34;5049828;28;20049;-57
2022/01/02 02:24:41;;;;;;;19.02;10.07;;;;;;;3.19;99.40;101270.78;5051050;28;20141;-57
2022/01/02 02:27:08;;;;;;;23.67;10.82;;;;;;;3.20;99.29;101280.19;5053688;28;20049;-57
2022/01/02 02:29:35;;;;;;;23.30;11.80;;;;;;;3.21;99.27;101261.44;5054828;28;20049;-57
2022/01/02 02:32:02;;;;;;;21.23;10.93;;;;;;;3.21;99.60;101251.19;5057173;28;20063;-57
2022/01/02 02:34:29;;;;;;;18.00;8.88;;;;;;;3.22;100.00;101242.69;5055710;28;20060;-57
2022/01/02 02:36:57;;;;;;;24.75;11.00;;;;;;;3.24;99.78;101230.78;5058645;28;20405;-57
2022/01/02 02:39:26;;;;;;;17.98;9.55;;;;;;;3.23;100.00;101218.78;5054110;28;20429;-57
2022/01/02 02:41:53;;;;;;;19.88;9.98;;;;;;;3.24;100.00;101210.28;5053237;28;20047;-57
2022/01/02 02:44:33;;;;;;;16.05;8.98;;;;;;;3.24;100.00;101200.03;5066005;28;20753;-58
2022/01/02 02:49:45;;;;;;;19.40;9.77;;;;;;;3.27;100.00;101174.50;5059138;28;20113;-57
2022/01/02 02:52:22;;;;;;;18.73;9.55;;;;;;;3.25;100.00;101161.66;5058039;28;20422;-58
2022/01/02 02:54:51;;;;;;;19.42;9.00;;;;;;;3.28;100.00;101136.09;5058330;28;20057;-57
2022/01/02 02:57:19;;;;;;;22.13;10.80;;;;;;;3.32;100.00;101131.94;5065426;28;20456;-58
2022/01/02 02:59:46;;;;;;;24.27;10.88;;;;;;;3.35;100.00;101147.38;5053757;28;20052;-58
2022/01/02 03:02:13;;;;;;;18.48;10.02;;;;;;;3.37;100.00;101145.75;5055714;28;20040;-57
2022/01/02 03:04:41;;;;;;;21.75;10.18;;;;;;;3.39;100.00;101138.97;5056192;28;20068;-57
2022/01/02 03:07:08;;;;;;;21.02;10.48;;;;;;;3.41;100.00;101138.19;5052626;28;20110;-57
2022/01/02 03:09:40;;;;;;;22.50;10.70;;;;;;;3.43;100.00;101135.66;5062474;28;20048;-57
2022/01/02 03:12:10;;;;;;;18.90;10.18;;;;;;;3.45;100.00;101134.88;5055305;28;20059;-57
2022/01/02 03:14:37;;;;;;;19.77;10.18;;;;;;;3.48;100.00;101126.38;5056459;28;20052;-57
2022/01/02 03:17:05;;;;;;;25.10;10.48;;;;;;;3.48;100.00;101114.44;5062760;28;20049;-57
2022/01/02 03:19:33;;;;;;;21.27;10.80;;;;;;;3.51;100.00;101105.97;5055804;28;20052;-57
2022/01/02 03:22:00;;;;;;;64.88;28.10;;;;;;;3.53;100.00;101094.06;5051914;28;20052;-57
2022/01/02 03:24:27;;;;;;;36.70;18.65;;;;;;;3.56;100.00;101091.56;5059808;28;20049;-57
2022/01/02 03:26:54;;;;;;;47.03;23.20;;;;;;;3.59;100.00;101081.38;5057701;28;20049;-57
2022/01/02 03:29:23;;;;;;;46.35;19.05;;;;;;;3.58;100.00;101077.09;5059471;28;20052;-57
2022/01/02 03:31:51;;;;;;;45.00;21.17;;;;;;;3.62;100.00;101073.78;5057607;28;20077;-57
2022/01/02 03:34:18;;;;;;;34.85;16.40;;;;;;;3.62;100.00;101068.66;5060206;28;20048;-58
2022/01/02 03:36:45;;;;;;;27.15;13.82;;;;;;;3.66;100.00;101046.56;5067719;28;20126;-58
2022/01/02 03:39:12;;;;;;;33.30;16.70;;;;;;;3.69;100.00;101044.94;5059234;28;20041;-58
2022/01/02 03:41:39;;;;;;;35.97;17.15;;;;;;;3.72;100.00;101042.44;5055111;28;20067;-58
2022/01/02 03:44:06;;;;;;;49.60;24.60;;;;;;;3.74;100.00;101038.22;5056354;28;20052;-58
2022/01/02 03:46:35;;;;;;;71.22;33.15;;;;;;;3.76;100.00;101028.84;5057619;28;20049;-58
2022/01/02 03:49:02;;;;;;;69.22;32.60;;;;;;;3.82;100.00;101027.25;5056078;28;20045;-57
2022/01/02 03:51:29;;;;;;;80.55;38.13;;;;;;;3.86;100.00;101035.06;5061536;28;20064;-57
2022/01/02 03:53:56;;;;;;;72.47;32.00;;;;;;;3.90;100.00;101030.88;5065679;28;20056;-57
2022/01/02 03:56:23;;;;;;;78.05;34.58;;;;;;;3.94;100.00;101022.41;5060880;28;20053;-57
2022/01/02 03:58:50;;;;;;;48.70;25.15;;;;;;;3.99;100.00;101010.56;5060795;28;20041;-57
2022/01/02 04:01:17;;;;;;;83.68;37.53;;;;;;;4.01;100.00;100998.63;5064247;28;20041;-57
2022/01/02 04:03:46;;;;;;;46.50;22.08;;;;;;;4.03;100.00;100992.72;5057008;28;20056;-57
2022/01/02 04:06:13;;;;;;;56.85;25.55;;;;;;;4.08;100.00;100980.84;5056344;28;20050;-57
2022/01/02 04:08:40;;;;;;;106.57;44.75;;;;;;;4.11;100.00;100974.91;5054524;28;20052;-57
2022/01/02 04:11:07;;;;;;;67.25;29.98;;;;;;;4.16;100.00;100968.19;5054718;28;20048;-58
2022/01/02 04:13:34;;;;;;;55.38;25.40;;;;;;;4.19;100.00;100963.16;5060311;28;20474;-57
2022/01/02 04:16:01;;;;;;;62.80;29.15;;;;;;;4.23;100.00;100959.81;5059611;28;20041;-58
2022/01/02 04:18:28;;;;;;;61.83;29.40;;;;;;;4.27;100.00;100966.72;5055764;28;20053;-58
2022/01/02 04:20:57;;;;;;;77.95;36.50;;;;;;;4.32;100.00;100971.97;5059941;28;20037;-57
2022/01/02 04:23:24;;;;;;;39.60;18.95;;;;;;;4.36;100.00;100958.34;5050103;28;20048;-57
2022/01/02 04:25:51;;;;;;;41.85;21.45;;;;;;;4.40;100.00;100944.75;5061212;28;20405;-57
2022/01/02 04:28:18;;;;;;;31.17;16.25;;;;;;;4.42;100.00;100941.38;5053604;28;20041;-57
2022/01/02 04:30:45;;;;;;;22.88;12.35;;;;;;;4.47;100.00;100928.63;5062080;28;20378;-57
2022/01/02 04:33:12;;;;;;;31.08;15.90;;;;;;;4.49;100.00;100934.66;5058325;28;20102;-57
2022/01/02 04:35:39;;;;;;;20.80;10.68;;;;;;;4.54;100.00;100924.47;5053690;28;20381;-57
2022/01/02 04:38:08;;;;;;;23.02;11.57;;;;;;;4.57;100.00;100909.13;5054820;28;20076;-57
2022/01/02 04:40:35;;;;;;;18.60;11.32;;;;;;;4.62;100.00;100908.38;5054779;28;20058;-57
2022/01/02 04:43:02;;;;;;;21.13;10.73;;;;;;;4.65;100.00;100899.84;5058308;28;20065;-57
2022/01/02 04:45:29;;;;;;;20.23;11.43;;;;;;;4.67;100.00;100890.47;5055813;28;20445;-57
2022/01/02 04:47:56;;;;;;;29.13;16.25;;;;;;;4.70;100.00;100886.28;5060656;28;20397;-57
2022/01/02 04:50:24;;;;;;;23.02;12.77;;;;;;;4.72;100.00;100884.63;5051300;28;20045;-57
2022/01/02 04:52:51;;;;;;;27.08;13.52;;;;;;;4.74;100.00;100876.94;5056414;28;20045;-57
2022/01/02 04:55:20;;;;;;;30.83;16.20;;;;;;;4.78;100.00;100894.13;5054298;28;20064;-57
2022/01/02 04:57:47;;;;;;;20.65;12.27;;;;;;;4.81;100.00;100904.47;5058457;28;20075;-57
2022/01/02 05:00:15;;;;;;;20.98;11.57;;;;;;;4.85;100.00;100888.25;5049115;28;20057;-57
2022/01/02 05:02:42;;;;;;;21.50;11.32;;;;;;;4.90;100.00;100880.63;5052024;28;20045;-57
2022/01/02 05:05:09;;;;;;;19.63;11.18;;;;;;;4.93;100.00;100872.97;5057763;28;20049;-57
2022/01/02 05:07:36;;;;;;;21.75;12.68;;;;;;;4.97;100.00;100873.06;5052808;28;20422;-57
2022/01/02 05:10:04;;;;;;;19.50;11.30;;;;;;;4.99;100.00;100871.38;5056871;28;20052;-58
2022/01/02 05:12:34;;;;;;;15.50;9.20;;;;;;;5.04;100.00;100856.88;5059035;28;20052;-57
2022/01/02 05:15:01;;;;;;;19.33;11.45;;;;;;;5.08;100.00;100843.25;5049350;28;20130;-57
2022/01/02 05:17:28;;;;;;;31.45;17.38;;;;;;;5.13;100.00;100842.44;5057358;28;20068;-58
2022/01/02 05:19:56;;;;;;;21.98;12.75;;;;;;;5.17;100.00;100837.38;5058700;28;20041;-58
2022/01/02 05:22:23;;;;;;;18.60;10.55;;;;;;;5.19;100.00;100830.56;5057484;28;20045;-58
2022/01/02 05:24:50;;;;;;;16.25;8.80;;;;;;;5.24;100.00;100825.53;5054870;28;20049;-57
2022/01/02 05:27:17;;;;;;;16.50;9.30;;;;;;;5.28;100.00;100823.00;5051460;28;20055;-57
2022/01/02 05:29:46;;;;;;;17.35;9.63;;;;;;;5.32;100.00;100822.22;5054113;28;20048;-58
2022/01/02 05:32:13;;;;;;;17.98;11.63;;;;;;;5.36;100.00;100828.25;5066854;28;20052;-57
2022/01/02 05:34:40;;;;;;;19.15;11.98;;;;;;;5.40;100.00;100835.16;5054375;28;20048;-58
2022/01/02 05:37:07;;;;;;;22.90;13.57;;;;;;;5.45;100.00;100846.38;5057906;28;20413;-57
2022/01/02 05:39:34;;;;;;;20.70;12.05;;;;;;;5.49;100.00;100837.00;5055083;28;20120;-58
2022/01/02 05:42:01;;;;;;;18.58;10.85;;;;;;;5.55;100.00;100837.94;5052572;28;20490;-58
2022/01/02 05:44:28;;;;;;;18.00;10.50;;;;;;;5.60;100.00;100833.72;5047517;28;20056;-57
2022/01/02 05:46:57;;;;;;;17.38;9.95;;;;;;;5.66;100.00;100833.81;5055809;28;20064;-58
2022/01/02 05:49:24;;;;;;;17.48;11.15;;;;;;;5.69;100.00;100828.72;5060874;28;20102;-58
2022/01/02 05:51:51;;;;;;;18.50;10.50;;;;;;;5.76;100.00;100815.94;5058080;28;20049;-58
2022/01/02 05:54:18;;;;;;;18.00;10.23;;;;;;;5.80;100.00;100807.44;5049660;28;20041;-58
2022/01/02 05:56:46;;;;;;;19.40;11.18;;;;;;;5.84;100.00;100799.75;5059581;28;20473;-57
2022/01/02 05:59:13;;;;;;;18.60;11.70;;;;;;;5.88;100.00;100800.66;5050330;28;20428;-57
2022/01/02 06:01:40;;;;;;;23.23;11.63;;;;;;;5.91;100.00;100793.88;5051305;28;20041;-57
2022/01/02 06:04:08;;;;;;;20.30;11.80;;;;;;;5.92;100.00;100789.59;5054944;28;20048;-58
2022/01/02 06:06:35;;;;;;;19.08;11.20;;;;;;;5.94;100.00;100777.59;5060820;28;20053;-57
2022/01/02 06:09:02;;;;;;;19.05;10.75;;;;;;;5.96;100.00;100781.91;5058292;28;20049;-58
2022/01/02 06:11:30;;;;;;;20.33;11.48;;;;;;;6.00;100.00;100777.66;5055293;28;20036;-58
2022/01/02 06:13:57;;;;;;;20.30;11.98;;;;;;;6.03;100.00;100769.97;5054067;28;20531;-58
2022/01/02 06:16:25;;;;;;;21.25;11.88;;;;;;;6.05;100.00;100755.41;5055916;28;20044;-57
2022/01/02 06:18:53;;;;;;;23.55;13.38;;;;;;;6.07;100.00;100758.00;5052409;28;20060;-57
2022/01/02 06:21:22;;;;;;;19.45;11.68;;;;;;;6.12;100.00;100741.75;5048538;28;20066;-58
2022/01/02 06:23:49;;;;;;;19.85;11.25;;;;;;;6.16;100.00;100733.22;5059700;28;20052;-58
2022/01/02 06:26:16;;;;;;;25.27;12.35;;;;;;;6.20;100.00;100719.53;5053520;28;20444;-57
2022/01/02 06:28:43;;;;;;;24.20;13.15;;;;;;;6.23;100.00;100709.25;5053172;28;20051;-57
2022/01/02 06:31:11;;;;;;;22.95;12.68;;;;;;;6.25;100.00;100705.03;5057457;28;20064;-57
2022/01/02 06:33:38;;;;;;;23.23;12.75;;;;;;;6.30;100.00;100699.91;5056335;28;20086;-58
2022/01/02 06:36:05;;;;;;;24.15;13.20;;;;;;;6.35;100.00;100697.38;5055196;28;20049;-58
2022/01/02 06:38:34;;;;;;;26.25;12.93;;;;;;;6.38;100.00;100690.53;5052994;28;20056;-58
2022/01/02 06:41:01;;;;;;;26.67;14.25;;;;;;;6.43;100.00;100680.28;5056441;28;20045;-57
2022/01/02 06:43:28;;;;;;;26.05;13.85;;;;;;;6.46;100.00;100664.84;5052064;28;20053;-57
2022/01/02 06:45:55;;;;;;;26.88;14.55;;;;;;;6.51;100.00;100665.72;5053501;28;20061;-58
2022/01/02 06:48:23;;;;;;;25.10;15.13;;;;;;;6.56;100.00;100659.75;5053165;28;20041;-57
2022/01/02 06:50:50;;;;;;;29.30;15.07;;;;;;;6.59;100.00;100656.34;5053225;28;20041;-58
2022/01/02 06:53:17;;;;;;;27.52;14.85;;;;;;;6.62;100.00;100651.22;5050794;28;20045;-58
2022/01/02 06:55:45;;;;;;;28.38;15.20;;;;;;;6.66;100.00;100652.94;5049158;28;20047;-57
2022/01/02 06:58:14;;;;;;;30.83;16.80;;;;;;;6.70;100.00;100654.69;5048734;28;20052;-57
2022/01/02 07:00:42;;;;;;;29.38;15.30;;;;;;;6.76;100.00;100647.00;5048512;28;20661;-58
2022/01/02 07:03:09;;;;;;;27.95;14.63;;;;;;;6.82;100.00;100649.63;5053200;28;20465;-57
2022/01/02 07:05:36;;;;;;;28.00;15.50;;;;;;;6.86;100.00;100651.38;5053139;28;20068;-58
2022/01/02 07:08:03;;;;;;;30.05;15.38;;;;;;;6.88;100.00;100639.38;5052660;28;20048;-57
2022/01/02 07:10:31;;;;;;;27.50;15.32;;;;;;;6.91;100.00;100633.34;5051427;28;20064;-57
2022/01/02 07:13:00;;;;;;;27.95;15.90;;;;;;;6.94;100.00;100623.94;5059678;28;20055;-58
2022/01/02 07:15:27;;;;;;;29.27;16.58;;;;;;;6.98;100.00;100629.97;5063578;28;20053;-57
2022/01/02 07:17:54;;;;;;;30.38;15.88;;;;;;;7.02;100.00;100628.25;5062287;28;20048;-58
2022/01/02 07:20:21;;;;;;;31.77;18.02;;;;;;;7.04;100.00;100613.66;5051308;28;20041;-57
2022/01/02 07:22:48;;;;;;;27.38;14.15;;;;;;;7.06;100.00;100625.69;5054477;28;20056;-58
2022/01/02 07:25:15;;;;;;;28.67;15.40;;;;;;;7.11;100.00;100615.41;5056919;28;20095;-58
2022/01/02 07:27:43;;;;;;;26.60;15.15;;;;;;;7.14;100.00;100610.25;5062345;28;20139;-58
2022/01/02 07:30:12;;;;;;;29.13;15.85;;;;;;;7.16;100.00;100599.09;5052925;28;20088;-57
2022/01/02 07:32:39;;;;;;;27.83;15.00;;;;;;;7.19;99.95;100609.41;5061519;28;20489;-57
2022/01/02 07:35:08;;;;;;;25.73;15.13;;;;;;;7.23;100.00;100616.28;5060754;28;20052;-58
2022/01/02 07:37:35;;;;;;;26.55;15.30;;;;;;;7.28;99.63;100603.41;5056383;28;20063;-58
2022/01/02 07:40:03;;;;;;;23.35;13.55;;;;;;;7.30;99.31;100600.88;5052312;28;20055;-57
2022/01/02 07:42:30;;;;;;;27.55;15.48;;;;;;;7.32;98.63;100600.03;5059552;28;20501;-58
2022/01/02 07:44:58;;;;;;;24.45;13.38;;;;;;;7.37;98.81;100595.75;5060081;28;20539;-58
2022/01/02 07:47:26;;;;;;;27.13;14.50;;;;;;;7.40;98.56;100582.84;5058465;28;20477;-58
2022/01/02 07:49:53;;;;;;;24.25;14.88;;;;;;;7.43;97.84;100598.31;5058671;28;20045;-57
2022/01/02 07:52:21;;;;;;;25.02;14.68;;;;;;;7.44;97.81;100589.72;5054617;28;20052;-58
2022/01/02 07:54:48;;;;;;;24.73;14.35;;;;;;;7.47;98.45;100588.88;5061802;28;20057;-58
2022/01/02 07:57:15;;;;;;;23.10;13.98;;;;;;;7.49;97.92;100567.38;5052500;28;20045;-57
2022/01/02 07:59:42;;;;;;;26.00;14.95;;;;;;;7.53;98.20;100563.94;5051642;28;20048;-58
2022/01/02 08:02:09;;;;;;;24.15;14.10;;;;;;;7.55;97.59;100544.19;5059584;28;20592;-57
2022/01/02 08:04:37;;;;;;;22.63;13.48;;;;;;;7.58;98.03;100551.91;5052834;28;20040;-57
2022/01/02 08:07:05;;;;;;;23.38;13.63;;;;;;;7.58;97.79;100557.06;5054777;28;20472;-58
2022/01/02 08:09:32;;;;;;;24.67;14.00;;;;;;;7.62;97.72;100536.44;5054805;28;20398;-58
2022/01/02 08:11:59;;;;;;;24.70;13.40;;;;;;;7.65;97.05;100541.59;5065398;28;20048;-58
2022/01/02 08:14:26;;;;;;;23.15;13.43;;;;;;;7.67;97.38;100539.88;5057900;28;20056;-58
2022/01/02 08:16:53;;;;;;;27.38;14.27;;;;;;;7.70;97.29;100537.31;5052427;28;20060;-57
2022/01/02 08:19:20;;;;;;;20.70;12.50;;;;;;;7.73;97.17;100534.72;5053078;28;20132;-57
2022/01/02 08:21:49;;;;;;;24.42;14.13;;;;;;;7.74;96.61;100531.28;5052425;28;20048;-57
2022/01/02 08:24:16;;;;;;;24.55;12.90;;;;;;;7.79;96.74;100529.56;5057932;28;20052;-58
2022/01/02 08:26:43;;;;;;;23.55;12.82;;;;;;;7.81;96.50;100514.97;5052973;28;20049;-58
2022/01/02 08:29:10;;;;;;;23.60;12.77;;;;;;;7.83;96.96;100510.66;5052002;28;20064;-57
2022/01/02 08:31:37;;;;;;;24.23;13.38;;;;;;;7.86;96.40;100510.66;5050547;28;20383;-58
2022/01/02 08:34:04;;;;;;;23.55;13.05;;;;;;;7.87;96.49;100514.97;5059125;28;20045;-58
2022/01/02 08:36:31;;;;;;;23.00;13.63;;;;;;;7.88;96.79;100511.50;5056066;28;20420;-58
2022/01/02 08:39:00;;;;;;;22.50;11.85;;;;;;;7.91;96.46;100503.78;5054093;28;20052;-58
2022/01/02 08:41:27;;;;;;;22.90;13.23;;;;;;;7.93;96.39;100512.38;5057255;28;20053;-58
2022/01/02 08:43:54;;;;;;;24.70;13.77;;;;;;;7.93;96.40;100496.88;5054299;28;20072;-58
2022/01/02 08:46:21;;;;;;;18.17;11.35;;;;;;;7.94;96.17;100488.28;5059698;28;20094;-58
2022/01/02 08:48:48;;;;;;;19.35;11.60;;;;;;;7.95;96.48;100490.00;5062796;28;20056;-58
2022/01/02 08:51:15;;;;;;;22.98;11.73;;;;;;;7.97;96.03;100480.53;5052298;28;20382;-58
2022/01/02 08:53:42;;;;;;;20.02;11.43;;;;;;;7.98;96.60;100479.66;5049676;28;20041;-57
2022/01/02 08:56:11;;;;;;;22.05;11.98;;;;;;;8.01;96.19;100479.66;5051648;28;20091;-58
2022/01/02 08:58:38;;;;;;;20.88;11.55;;;;;;;8.03;96.36;100482.22;5053459;28;20045;-58
2022/01/02 09:01:05;;;;;;;20.58;11.48;;;;;;;8.03;96.77;100482.22;5054450;28;20062;-58
2022/01/02 09:03:33;;;;;;;20.60;11.07;;;;;;;8.03;96.69;100488.25;5052959;28;20044;-58
2022/01/02 09:06:00;;;;;;;19.15;10.88;;;;;;;8.04;96.38;100474.50;5058514;28;20056;-58
2022/01/02 09:08:27;;;;;;;22.20;11.15;;;;;;;8.06;96.83;100465.00;5058568;28;20056;-58
2022/01/02 09:10:54;;;;;;;22.10;10.75;;;;;;;8.08;96.74;100460.72;5058110;28;20427;-58
2022/01/02 09:13:23;;;;;;;16.63;10.25;;;;;;;8.09;96.77;100452.09;5057880;28;20079;-58
2022/01/02 09:15:51;;;;;;;20.95;11.05;;;;;;;8.09;96.44;100446.94;5049375;28;20045;-58
2022/01/02 09:18:18;;;;;;;23.83;10.93;;;;;;;8.09;96.90;100446.94;5058484;28;20106;-58
2022/01/02 09:20:45;;;;;;;21.73;11.13;;;;;;;8.11;96.54;100450.38;5061418;28;20363;-58
2022/01/02 09:23:13;;;;;;;18.58;10.98;;;;;;;8.11;97.12;100437.47;5059675;28;20051;-58
2022/01/02 09:25:41;;;;;;;21.63;11.57;;;;;;;8.11;96.65;100419.38;5053827;28;20507;-58
2022/01/02 09:28:09;;;;;;;19.52;10.55;;;;;;;8.08;96.63;100408.22;5060255;28;20482;-58
2022/01/02 09:30:37;;;;;;;19.77;10.88;;;;;;;8.07;96.90;100402.19;5051516;28;20482;-58
2022/01/02 09:33:08;;;;;;;22.08;11.30;;;;;;;8.05;97.24;100388.44;5055612;28;21437;-58
2022/01/02 09:35:36;;;;;;;19.98;11.88;;;;;;;8.08;97.31;100384.97;5055497;28;20102;-58
2022/01/02 09:38:03;;;;;;;19.73;11.82;;;;;;;8.05;97.20;100380.69;5058446;28;20044;-57
2022/01/02 09:40:32;;;;;;;19.33;11.07;;;;;;;8.05;97.20;100378.09;5060665;28;20048;-58
2022/01/02 09:43:00;;;;;;;20.70;11.43;;;;;;;8.04;97.47;100366.06;5052367;28;20060;-58
2022/01/02 09:45:28;;;;;;;23.70;14.95;;;;;;;7.98;97.84;100355.78;5058513;28;20060;-58
2022/01/02 09:47:56;;;;;;;18.52;11.02;;;;;;;8.01;97.25;100355.75;5052653;28;20485;-58
2022/01/02 09:50:23;;;;;;;18.38;11.00;;;;;;;8.00;97.26;100359.19;5051410;28;20744;-57
2022/01/02 09:52:52;;;;;;;17.52;9.93;;;;;;;8.00;97.66;100348.88;5055776;28;20055;-58
2022/01/02 09:55:20;;;;;;;20.48;10.48;;;;;;;8.01;97.79;100340.28;5051836;28;20076;-58
2022/01/02 09:57:49;;;;;;;22.50;10.73;;;;;;;8.01;98.08;100342.84;5057452;28;20057;-58
2022/01/02 10:00:17;;;;;;;19.73;9.57;;;;;;;7.99;97.75;100336.84;5052139;28;20052;-58
2022/01/02 10:02:56;;;;;;;16.42;10.00;;;;;;;7.98;97.37;100329.97;5051413;28;20056;-58
2022/01/02 10:05:24;;;;;;;20.38;12.15;;;;;;;8.01;97.51;100324.78;5052993;28;20057;-58
2022/01/02 10:07:52;;;;;;;21.00;12.48;;;;;;;8.00;98.16;100312.75;5053216;28;20052;-58
2022/01/02 10:10:20;;;;;;;18.92;11.13;;;;;;;8.00;98.52;100317.91;5055801;28;20053;-58
2022/01/02 10:12:47;;;;;;;20.63;13.40;;;;;;;8.02;98.08;100305.84;5053127;28;20056;-58
2022/01/02 10:15:18;;;;;;;21.80;12.40;;;;;;;8.00;98.14;100302.41;5055879;28;20094;-58
2022/01/02 10:18:02;;;;;;;17.80;11.07;;;;;;;8.00;97.91;100284.34;5049903;28;20053;-58
2022/01/02 10:20:31;;;;;;;16.02;10.48;;;;;;;7.99;97.86;100284.34;5055404;28;20049;-58
2022/01/02 10:23:12;;;;;;;21.70;12.45;;;;;;;8.01;97.96;100280.91;5047298;28;20061;-58
2022/01/02 10:25:42;;;;;;;30.42;18.25;;;;;;;8.00;98.25;100268.00;5057064;28;20468;-57
2022/01/02 10:28:29;;;;;;;18.40;11.13;;;;;;;7.99;98.14;100269.72;5043167;28;20045;-57
2022/01/02 10:31:00;;;;;;;21.70;13.02;;;;;;;8.01;98.00;100259.41;5041636;28;20057;-58
2022/01/02 10:33:31;;;;;;;20.95;11.88;;;;;;;8.02;97.81;100254.22;5048969;28;20547;-57
2022/01/02 10:36:00;;;;;;;24.23;12.57;;;;;;;8.03;97.98;100247.34;5038915;28;20084;-57
2022/01/02 10:38:28;;;;;;;21.50;11.77;;;;;;;8.04;98.36;100241.31;5045511;28;20471;-57
2022/01/02 10:40:55;;;;;;;18.58;10.63;;;;;;;8.03;98.13;100237.00;5040744;28;20053;-58
2022/01/02 10:43:28;;;;;;;22.33;12.00;;;;;;;8.02;98.15;100233.56;5051634;28;20045;-58
2022/01/02 10:45:59;;;;;;;19.38;10.95;;;;;;;8.03;98.12;100224.09;5048001;28;20052;-58
2022/01/02 10:48:41;;;;;;;17.50;10.32;;;;;;;8.03;97.65;100224.97;5046748;28;20145;-58
2022/01/02 10:51:14;;;;;;;14.27;9.95;;;;;;;8.05;97.67;100212.91;5039386;28;20094;-58
2022/01/02 10:53:57;;;;;;;15.63;9.60;;;;;;;8.02;97.67;100207.75;5053654;28;20112;-57
2022/01/02 10:56:27;;;;;;;16.92;10.32;;;;;;;8.01;97.98;100200.88;5046371;28;20106;-58
2022/01/02 10:59:10;;;;;;;15.63;9.75;;;;;;;8.01;97.75;100200.88;5039304;28;20118;-57
2022/01/02 11:01:50;;;;;;;17.30;9.90;;;;;;;7.98;97.64;100193.16;5044595;28;20405;-57
2022/01/02 11:04:21;;;;;;;16.20;9.70;;;;;;;7.98;97.41;100189.72;5048200;28;20060;-57
2022/01/02 11:06:50;;;;;;;17.55;10.68;;;;;;;7.97;97.80;100188.88;5050086;28;20188;-57
2022/01/02 11:09:21;;;;;;;17.35;10.90;;;;;;;7.96;97.82;100187.16;5039756;28;20049;-57
2022/01/02 11:11:49;;;;;;;18.55;10.88;;;;;;;7.95;98.05;100185.44;5040063;28;20460;-57
2022/01/02 11:14:17;;;;;;;24.88;13.85;;;;;;;7.95;97.99;100179.41;5040293;28;20169;-57
2022/01/02 11:16:48;;;;;;;20.63;12.57;;;;;;;7.96;97.45;100176.84;5040191;28;20049;-57
2022/01/02 11:19:18;;;;;;;17.23;10.05;;;;;;;7.96;97.66;100166.50;5039526;28;20620;-57
2022/01/02 11:21:54;;;;;;;15.77;10.00;;;;;;;7.96;98.30;100160.50;5038708;28;20048;-57
2022/01/02 11:24:38;;;;;;;16.02;10.68;;;;;;;7.94;97.93;100147.59;5041812;28;20049;-57